カイロ の空港の天気 - METARとTAF

カイロ国際空港 ( HECA / CAI ) - エジプト [カイロ
飛行場実況気象(Metar)
観測時間08/11 09:30 EET (08/11 07:30 UTC)
風向・風速北西 3m/s
視程10km以上
天気現象
全天の4割程度の雲 雲底高度 760m
気温29℃
湿度58%
気圧1011hPa
METARHECA 110730Z 32006KT 9999 SCT025 29/20 Q1011 NOSIG
過去の天気等 Google飛行場航空写真 Wunderground天気予報

過去48時間のMETAR

飛行場予報(TAF)
発表時間: 8/11 07:00 EET (8/11 05:00 UTC)
予報対象時間: 11日8時 EET ~ 12日14時 EET
風向・風速北 5m/s
視程10km以上
なし
TAF HECA 110500Z 1106/1212 35009KT CAVOK